Time;durP1;ratioP1;P1;durP2;ratioP2;P2;SDS_P1;SDS_P2;PMS_P1;PMS_P2;Temp;Humidity;BMP_temperature;BMP_pressure;BME280_temperature;BME280_humidity;BME280_pressure;Samples;Min_cycle;Max_cycle;Signal;HPM_P1;HPM_P2
2022/08/19 00:00:08;;;;;;;0.20;0.20;;;16.70;99.90;;;;;;5074899;28;20514;-90
2022/08/19 00:02:35;;;;;;;0.17;0.17;;;16.60;99.90;;;;;;5093867;28;20047;-91
2022/08/19 00:05:01;;;;;;;0.20;0.20;;;16.60;99.90;;;;;;5099368;28;20119;-89
2022/08/19 00:07:26;;;;;;;0.20;0.20;;;16.60;99.90;;;;;;5094985;28;20093;-89
2022/08/19 00:09:53;;;;;;;0.10;0.10;;;16.60;99.90;;;;;;5113011;28;20079;-90
2022/08/19 00:12:19;;;;;;;0.20;0.20;;;16.60;99.90;;;;;;5114222;28;20039;-88
2022/08/19 00:14:44;;;;;;;0.20;0.20;;;16.60;99.90;;;;;;5112860;28;20046;-90
2022/08/19 00:17:10;;;;;;;0.10;0.10;;;16.50;99.90;;;;;;5113791;28;20043;-90
2022/08/19 00:19:36;;;;;;;0.17;0.17;;;16.50;99.90;;;;;;5112989;28;20371;-90
2022/08/19 00:22:03;;;;;;;0.10;0.10;;;16.50;99.90;;;;;;5113557;28;20043;-90
2022/08/19 00:24:29;;;;;;;0.20;0.20;;;16.30;99.90;;;;;;5095464;28;20052;-90
2022/08/19 00:26:56;;;;;;;0.20;0.20;;;16.40;99.90;;;;;;5112503;28;20135;-90
2022/08/19 00:29:24;;;;;;;0.20;0.20;;;16.40;99.90;;;;;;5113754;28;20085;-89
2022/08/19 00:31:54;;;;;;;0.10;0.10;;;16.40;99.90;;;;;;5095366;28;20130;-90
2022/08/19 00:34:20;;;;;;;0.10;0.10;;;16.40;99.90;;;;;;5094590;28;20059;-90
2022/08/19 00:36:46;;;;;;;0.20;0.20;;;16.40;99.90;;;;;;5113879;28;20150;-90
2022/08/19 00:39:13;;;;;;;0.20;0.20;;;16.20;99.90;;;;;;5113253;28;20122;-90
2022/08/19 00:41:40;;;;;;;0.15;0.15;;;16.30;99.90;;;;;;5112152;28;20470;-90
2022/08/19 00:44:07;;;;;;;0.20;0.20;;;16.40;99.90;;;;;;5113536;28;20040;-90
2022/08/19 00:46:36;;;;;;;0.20;0.20;;;16.30;99.90;;;;;;5114033;28;20525;-89
2022/08/19 00:49:08;;;;;;;0.20;0.20;;;16.30;99.90;;;;;;5112932;28;20050;-89
2022/08/19 00:51:35;;;;;;;0.20;0.20;;;16.20;99.90;;;;;;5113964;28;20043;-90
2022/08/19 00:54:02;;;;;;;0.20;0.20;;;16.20;99.90;;;;;;5113335;28;20046;-89
2022/08/19 00:56:30;;;;;;;0.20;0.20;;;16.20;99.90;;;;;;5098357;28;20096;-90
2022/08/19 00:58:59;;;;;;;0.20;0.20;;;16.10;99.90;;;;;;5114536;28;20047;-89
2022/08/19 01:01:25;;;;;;;0.13;0.13;;;16.10;99.90;;;;;;5116568;28;20046;-91
2022/08/19 01:03:51;;;;;;;0.13;0.13;;;16.20;99.90;;;;;;5117082;28;20479;-89
2022/08/19 01:06:16;;;;;;;0.10;0.10;;;16.20;99.90;;;;;;5099272;28;20088;-90
2022/08/19 01:08:42;;;;;;;0.10;0.10;;;16.10;99.90;;;;;;5098964;28;20056;-89
2022/08/19 01:11:08;;;;;;;0.17;0.17;;;16.10;99.90;;;;;;5098559;28;20487;-89
2022/08/19 01:13:35;;;;;;;0.10;0.10;;;16.30;99.90;;;;;;5116769;28;20479;-90
2022/08/19 01:16:06;;;;;;;0.20;0.20;;;16.10;99.90;;;;;;5099349;28;20563;-90
2022/08/19 01:18:35;;;;;;;0.20;0.20;;;16.10;99.90;;;;;;5098468;28;20040;-90
2022/08/19 01:21:07;;;;;;;0.20;0.20;;;16.10;99.90;;;;;;5116504;28;20086;-89
2022/08/19 01:23:45;;;;;;;0.20;0.20;;;16.00;99.90;;;;;;5097373;28;20051;-89
2022/08/19 01:26:29;;;;;;;0.20;0.20;;;16.00;99.90;;;;;;5111842;28;20040;-90
2022/08/19 01:28:57;;;;;;;0.15;0.15;;;16.00;99.90;;;;;;5078399;28;20039;-90
2022/08/19 01:31:25;;;;;;;0.20;0.20;;;16.00;99.90;;;;;;5108234;28;20372;-88
2022/08/19 01:33:52;;;;;;;0.20;0.20;;;15.90;99.90;;;;;;5080435;28;20040;-91
2022/08/19 01:36:46;;;;;;;0.20;0.20;;;15.90;99.90;;;;;;5077924;28;20044;-90
2022/08/19 01:39:16;;;;;;;0.17;0.17;;;15.80;99.90;;;;;;5071371;28;20055;-89
2022/08/19 01:41:42;;;;;;;0.20;0.20;;;15.90;99.90;;;;;;5077512;28;20066;-90
2022/08/19 01:44:09;;;;;;;0.20;0.20;;;15.90;99.90;;;;;;5077378;28;20036;-89
2022/08/19 01:46:35;;;;;;;0.20;0.20;;;15.90;99.90;;;;;;5078028;28;20036;-89
2022/08/19 01:49:02;;;;;;;0.20;0.20;;;15.90;99.90;;;;;;5095781;28;20109;-90
2022/08/19 01:51:28;;;;;;;0.20;0.20;;;15.90;99.90;;;;;;5095023;28;20070;-90
2022/08/19 01:53:54;;;;;;;0.20;0.20;;;15.90;99.90;;;;;;5095582;28;20036;-89
2022/08/19 01:56:21;;;;;;;0.20;0.20;;;15.90;99.90;;;;;;5095550;28;20438;-91
2022/08/19 01:58:52;;;;;;;0.20;0.20;;;15.90;99.90;;;;;;5095400;28;20040;-90
2022/08/19 02:01:19;;;;;;;0.20;0.20;;;15.90;99.90;;;;;;5077678;28;20107;-90
2022/08/19 02:03:45;;;;;;;0.17;0.17;;;15.80;99.90;;;;;;5095567;28;20040;-91
2022/08/19 02:06:11;;;;;;;0.20;0.20;;;15.90;99.90;;;;;;5110290;28;20044;-91
2022/08/19 02:08:39;;;;;;;0.15;0.15;;;15.90;99.90;;;;;;5097348;28;20482;-90
2022/08/19 02:11:06;;;;;;;0.20;0.20;;;16.00;99.90;;;;;;5114389;28;20035;-90
2022/08/19 02:13:33;;;;;;;0.10;0.10;;;15.90;99.90;;;;;;5097073;28;20047;-91
2022/08/19 02:15:59;;;;;;;0.20;0.20;;;15.90;99.90;;;;;;5115772;28;20046;-90
2022/08/19 02:18:26;;;;;;;0.20;0.20;;;15.90;99.90;;;;;;5115593;28;20566;-89
2022/08/19 02:20:52;;;;;;;0.20;0.20;;;15.90;99.90;;;;;;5096512;28;20059;-88
2022/08/19 02:23:17;;;;;;;0.20;0.20;;;15.90;99.90;;;;;;5115352;28;20528;-90
2022/08/19 02:25:46;;;;;;;0.20;0.20;;;15.90;99.90;;;;;;5124638;28;20079;-88
2022/08/19 02:28:12;;;;;;;0.20;0.20;;;15.90;99.90;;;;;;5127486;28;20052;-89
2022/08/19 02:30:38;;;;;;;0.20;0.20;;;15.80;99.90;;;;;;5098553;28;20075;-90
2022/08/19 02:33:04;;;;;;;0.20;0.20;;;15.80;99.90;;;;;;5097029;28;20063;-90
2022/08/19 02:35:30;;;;;;;0.20;0.20;;;15.80;99.90;;;;;;5114393;28;20086;-90
2022/08/19 02:40:49;;;;;;;0.20;0.20;;;15.80;99.90;;;;;;5096666;28;20045;-89
2022/08/19 02:43:15;;;;;;;0.20;0.20;;;15.80;99.90;;;;;;5098010;28;20178;-89
2022/08/19 02:45:41;;;;;;;0.10;0.10;;;15.80;99.90;;;;;;5121188;28;20108;-90
2022/08/19 02:48:08;;;;;;;0.20;0.20;;;15.80;99.90;;;;;;5096463;28;20479;-91
2022/08/19 02:50:38;;;;;;;0.20;0.20;;;15.80;99.90;;;;;;5097076;28;20043;-90
2022/08/19 02:53:03;;;;;;;0.20;0.20;;;15.80;99.90;;;;;;5115776;28;20085;-89
2022/08/19 02:55:29;;;;;;;0.20;0.20;;;15.70;99.90;;;;;;5094746;28;20070;-90
2022/08/19 02:57:56;;;;;;;0.20;0.20;;;15.70;99.90;;;;;;5097077;28;20047;-89
2022/08/19 03:00:23;;;;;;;0.10;0.10;;;15.70;99.90;;;;;;5114284;28;20051;-90
2022/08/19 03:02:49;;;;;;;0.10;0.10;;;15.70;99.90;;;;;;5114442;28;20051;-89
2022/08/19 03:05:15;;;;;;;0.20;0.20;;;15.70;99.90;;;;;;5096548;28;20411;-90
2022/08/19 03:07:41;;;;;;;0.20;0.20;;;15.60;99.90;;;;;;5096620;28;20071;-91
2022/08/19 03:10:07;;;;;;;0.20;0.20;;;15.60;99.90;;;;;;5095143;28;20059;-90
2022/08/19 03:12:36;;;;;;;0.20;0.20;;;15.60;99.90;;;;;;5096412;28;20463;-89
2022/08/19 03:15:02;;;;;;;0.17;0.17;;;15.60;99.90;;;;;;5100667;28;20048;-87
2022/08/19 03:17:28;;;;;;;0.20;0.20;;;15.60;99.90;;;;;;5128685;28;20031;-93
2022/08/19 03:19:53;;;;;;;0.20;0.20;;;15.60;99.90;;;;;;5099542;28;20104;-89
2022/08/19 03:22:19;;;;;;;0.10;0.10;;;15.70;99.90;;;;;;5096050;28;20399;-90
2022/08/19 03:24:44;;;;;;;0.10;0.10;;;15.70;99.90;;;;;;5112955;28;20075;-89
2022/08/19 03:27:10;;;;;;;0.20;0.20;;;15.70;99.90;;;;;;5114195;28;20380;-91
2022/08/19 03:29:38;;;;;;;0.20;0.20;;;15.60;99.90;;;;;;5113811;28;20051;-91
2022/08/19 03:32:05;;;;;;;0.20;0.20;;;15.70;99.90;;;;;;5096373;28;20082;-90
2022/08/19 03:34:33;;;;;;;0.15;0.15;;;15.70;99.90;;;;;;5096561;28;20054;-90
2022/08/19 03:37:03;;;;;;;0.20;0.20;;;15.80;99.90;;;;;;5113734;28;20047;-91
2022/08/19 03:39:28;;;;;;;0.10;0.10;;;15.80;99.90;;;;;;5095871;28;20047;-90
2022/08/19 03:41:59;;;;;;;0.20;0.20;;;15.80;99.90;;;;;;5113714;28;20169;-91
2022/08/19 03:44:25;;;;;;;0.20;0.20;;;15.80;99.90;;;;;;5095636;28;20061;-90
2022/08/19 03:46:57;;;;;;;0.20;0.20;;;15.80;99.90;;;;;;5096088;28;20570;-90
2022/08/19 03:49:24;;;;;;;0.20;0.20;;;15.80;99.90;;;;;;5096082;28;20410;-89
2022/08/19 03:51:51;;;;;;;0.15;0.15;;;15.80;99.90;;;;;;5096259;28;20058;-91
2022/08/19 03:54:19;;;;;;;0.20;0.20;;;15.90;99.90;;;;;;5096050;28;20043;-91
2022/08/19 03:56:47;;;;;;;0.13;0.13;;;15.80;99.90;;;;;;5113710;28;20078;-90
2022/08/19 03:59:35;;;;;;;0.20;0.20;;;15.70;99.90;;;;;;5108337;28;20054;-90
2022/08/19 04:02:08;;;;;;;0.20;0.20;;;15.80;99.90;;;;;;5127134;28;20055;-92
2022/08/19 04:04:35;;;;;;;0.10;0.10;;;15.90;99.90;;;;;;5111368;28;20040;-91
2022/08/19 04:07:01;;;;;;;0.10;0.10;;;15.80;99.90;;;;;;5075728;28;20113;-91
2022/08/19 04:09:27;;;;;;;0.10;0.10;;;15.80;99.90;;;;;;5075756;28;20495;-90
2022/08/19 04:11:54;;;;;;;0.20;0.20;;;15.80;99.90;;;;;;5077864;28;20052;-91
2022/08/19 04:14:25;;;;;;;0.10;0.10;;;15.80;99.90;;;;;;5094074;28;20036;-90
2022/08/19 04:16:52;;;;;;;0.10;0.10;;;15.80;99.90;;;;;;5077706;28;20047;-92
2022/08/19 04:19:18;;;;;;;0.10;0.10;;;15.80;99.90;;;;;;5075037;28;20036;-90
2022/08/19 04:21:46;;;;;;;0.10;0.10;;;15.70;99.90;;;;;;5093844;28;20044;-91
2022/08/19 04:24:13;;;;;;;0.10;0.10;;;15.80;99.90;;;;;;5093308;28;20082;-90
2022/08/19 04:26:39;;;;;;;0.10;0.10;;;15.80;99.90;;;;;;5074397;28;20048;-92
2022/08/19 04:29:09;;;;;;;0.20;0.20;;;15.80;99.90;;;;;;5076059;28;20055;-91
2022/08/19 04:31:35;;;;;;;0.10;0.10;;;15.70;99.90;;;;;;5075367;28;20078;-91
2022/08/19 04:34:07;;;;;;;0.20;0.20;;;15.70;99.90;;;;;;5093537;28;20060;-90
2022/08/19 04:36:37;;;;;;;0.20;0.20;;;15.70;99.90;;;;;;5097741;28;20044;-92
2022/08/19 04:39:08;;;;;;;0.20;0.20;;;15.70;99.90;;;;;;5117785;28;20126;-91
2022/08/19 04:44:19;;;;;;;0.10;0.10;;;15.80;99.90;;;;;;5099323;28;20048;-90
2022/08/19 04:46:47;;;;;;;0.10;0.10;;;15.70;99.90;;;;;;5117169;28;20046;-91
2022/08/19 04:49:15;;;;;;;0.15;0.15;;;15.60;99.90;;;;;;5117736;28;20040;-88
2022/08/19 04:51:43;;;;;;;0.13;0.13;;;15.50;99.90;;;;;;5117302;28;20505;-88
2022/08/19 04:54:09;;;;;;;0.20;0.20;;;15.60;99.90;;;;;;5119375;28;20046;-89
2022/08/19 04:56:35;;;;;;;0.10;0.10;;;15.40;99.90;;;;;;5100001;28;20047;-90
2022/08/19 04:59:03;;;;;;;0.10;0.10;;;15.40;99.90;;;;;;5117532;28;20506;-89
2022/08/19 05:01:32;;;;;;;0.20;0.20;;;15.40;99.90;;;;;;5111091;28;20055;-88
2022/08/19 05:04:05;;;;;;;0.20;0.20;;;15.30;99.90;;;;;;5106396;28;20039;-89
2022/08/19 05:06:33;;;;;;;0.10;0.10;;;15.40;99.90;;;;;;5098972;28;20051;-90
2022/08/19 05:09:03;;;;;;;0.10;0.10;;;15.40;99.90;;;;;;5116518;28;20491;-90
2022/08/19 05:11:32;;;;;;;0.10;0.10;;;15.40;99.90;;;;;;5097812;28;20108;-90
2022/08/19 05:13:57;;;;;;;0.10;0.10;;;15.40;99.90;;;;;;5117018;28;20039;-89
2022/08/19 05:16:25;;;;;;;0.20;0.20;;;15.40;99.90;;;;;;5098117;28;20501;-89
2022/08/19 05:24:24;;;;;;;0.20;0.20;;;15.60;99.90;;;;;;5116143;28;20516;-91
2022/08/19 05:26:52;;;;;;;0.17;0.17;;;15.60;99.90;;;;;;5088204;28;20039;-90
2022/08/19 05:29:21;;;;;;;0.20;0.20;;;15.70;99.90;;;;;;5077389;28;20458;-89
2022/08/19 05:31:50;;;;;;;0.20;0.20;;;15.70;99.90;;;;;;5083181;28;20036;-86
2022/08/19 05:34:18;;;;;;;0.20;0.20;;;15.80;99.90;;;;;;5092067;28;20056;-90
2022/08/19 05:36:45;;;;;;;0.10;0.10;;;15.80;99.90;;;;;;5077947;28;20541;-88
2022/08/19 05:39:15;;;;;;;0.13;0.13;;;15.90;99.90;;;;;;5078321;28;20369;-87
2022/08/19 05:41:48;;;;;;;0.20;0.20;;;16.00;99.90;;;;;;5077472;28;20515;-88
2022/08/19 05:44:14;;;;;;;0.20;0.20;;;16.00;99.90;;;;;;5094731;28;20275;-89
2022/08/19 05:46:42;;;;;;;0.10;0.10;;;16.10;99.90;;;;;;5095929;28;20040;-87
2022/08/19 05:49:08;;;;;;;0.15;0.15;;;16.20;99.90;;;;;;5078045;28;20039;-89
2022/08/19 05:51:36;;;;;;;0.20;0.20;;;16.10;99.90;;;;;;5095006;28;20040;-87
2022/08/19 05:54:07;;;;;;;0.20;0.20;;;16.30;99.90;;;;;;5095303;28;20044;-89
2022/08/19 05:56:37;;;;;;;0.20;0.20;;;16.30;99.90;;;;;;5095561;28;20101;-91
2022/08/19 05:59:09;;;;;;;0.20;0.20;;;16.40;99.90;;;;;;5094523;28;20496;-89
2022/08/19 06:01:39;;;;;;;0.10;0.10;;;16.50;99.90;;;;;;5095464;28;20533;-88
2022/08/19 06:04:05;;;;;;;0.20;0.20;;;16.60;99.90;;;;;;5095698;28;20051;-88
2022/08/19 06:06:30;;;;;;;0.10;0.10;;;16.80;99.90;;;;;;5095422;28;20055;-92
2022/08/19 06:08:56;;;;;;;0.20;0.20;;;16.80;99.90;;;;;;5115492;28;20471;-89
2022/08/19 06:11:38;;;;;;;0.20;0.20;;;16.80;99.90;;;;;;5114506;28;20050;-89
2022/08/19 06:14:10;;;;;;;0.10;0.10;;;16.90;99.90;;;;;;5115783;28;20048;-91
2022/08/19 06:16:38;;;;;;;0.17;0.17;;;17.00;99.90;;;;;;5115828;28;20418;-90
2022/08/19 06:19:07;;;;;;;0.15;0.15;;;17.10;99.90;;;;;;5097432;28;20046;-90
2022/08/19 06:21:35;;;;;;;0.20;0.20;;;17.20;99.90;;;;;;5100226;28;20158;-92
2022/08/19 06:24:02;;;;;;;0.10;0.10;;;17.30;99.90;;;;;;5097447;28;20043;-90
2022/08/19 06:26:27;;;;;;;0.15;0.15;;;17.40;99.90;;;;;;5095889;28;20048;-91
2022/08/19 06:28:56;;;;;;;0.10;0.10;;;17.40;99.90;;;;;;5097779;28;20047;-90
2022/08/19 06:31:27;;;;;;;0.20;0.20;;;17.50;99.90;;;;;;5115136;28;20544;-91
2022/08/19 06:33:53;;;;;;;;;;;17.60;99.90;;;;;;5115538;28;20058;-93
2022/08/19 06:36:27;;;;;;;0.10;0.10;;;17.70;99.90;;;;;;5098383;28;19920;-88
2022/08/19 06:38:53;;;;;;;0.10;0.10;;;17.70;99.90;;;;;;5096536;28;20047;-89
2022/08/19 06:41:19;;;;;;;0.20;0.20;;;17.80;99.90;;;;;;5113671;28;20122;-89
2022/08/19 06:43:44;;;;;;;0.20;0.20;;;17.90;99.90;;;;;;5114843;28;20462;-90
2022/08/19 06:46:13;;;;;;;0.20;0.20;;;17.90;99.90;;;;;;5097431;28;20052;-91
2022/08/19 06:48:39;;;;;;;0.20;0.20;;;18.00;99.90;;;;;;5131453;28;20383;-88
2022/08/19 06:51:05;;;;;;;0.17;0.17;;;18.10;99.90;;;;;;5101217;28;20121;-88
2022/08/19 06:53:32;;;;;;;0.17;0.17;;;18.20;99.90;;;;;;5114088;28;20494;-93
2022/08/19 06:56:01;;;;;;;0.10;0.10;;;18.20;99.90;;;;;;5096776;28;20055;-91
2022/08/19 06:58:31;;;;;;;0.20;0.20;;;18.40;99.90;;;;;;5114690;28;20544;-90
2022/08/19 07:01:04;;;;;;;0.20;0.20;;;18.40;99.90;;;;;;5114354;28;20035;-90
2022/08/19 07:03:32;;;;;;;0.17;0.17;;;18.40;99.90;;;;;;5116549;28;20407;-88
2022/08/19 07:06:06;;;;;;;0.10;0.10;;;18.50;99.90;;;;;;5128676;28;20020;-90
2022/08/19 07:08:33;;;;;;;0.13;0.13;;;18.60;99.90;;;;;;5113077;28;20062;-91
2022/08/19 07:10:59;;;;;;;0.20;0.20;;;18.70;99.90;;;;;;5116253;28;20453;-92
2022/08/19 07:13:26;;;;;;;0.13;0.13;;;18.70;99.90;;;;;;5115518;28;20051;-93
2022/08/19 07:15:51;;;;;;;0.10;0.10;;;18.80;99.90;;;;;;5103849;28;20040;-90
2022/08/19 07:18:21;;;;;;;0.20;0.20;;;18.90;99.90;;;;;;5103442;28;20107;-91
2022/08/19 07:20:47;;;;;;;0.20;0.20;;;18.90;99.90;;;;;;5097713;28;20083;-91
2022/08/19 07:23:13;;;;;;;0.20;0.20;;;19.00;99.90;;;;;;5115081;28;20063;-91
2022/08/19 07:25:39;;;;;;;0.20;0.20;;;19.10;99.90;;;;;;5095806;28;20463;-91
2022/08/19 07:28:07;;;;;;;0.20;0.20;;;19.20;99.90;;;;;;5114633;28;20132;-92
2022/08/19 07:30:35;;;;;;;0.20;0.20;;;19.20;99.90;;;;;;5096322;28;20399;-91
2022/08/19 07:33:01;;;;;;;0.20;0.20;;;19.30;99.90;;;;;;5115100;28;20059;-92
2022/08/19 07:35:28;;;;;;;0.20;0.20;;;19.40;99.90;;;;;;5096088;28;20051;-92
2022/08/19 07:37:53;;;;;;;0.20;0.20;;;19.50;99.90;;;;;;5114157;28;20040;-91
2022/08/19 07:40:19;;;;;;;0.20;0.20;;;19.50;99.90;;;;;;5113801;28;20429;-89
2022/08/19 07:42:45;;;;;;;0.20;0.20;;;19.60;99.90;;;;;;5096031;28;20052;-93
2022/08/19 07:45:10;;;;;;;0.20;0.20;;;19.60;99.90;;;;;;5098798;28;20082;-90
2022/08/19 07:47:36;;;;;;;0.13;0.13;;;19.70;99.90;;;;;;5118046;28;20547;-90
2022/08/19 07:50:04;;;;;;;0.20;0.20;;;19.70;99.90;;;;;;5095615;28;20047;-89
2022/08/19 07:52:30;;;;;;;0.15;0.15;;;19.80;99.90;;;;;;5097203;28;20157;-93
2022/08/19 07:54:55;;;;;;;0.20;0.20;;;19.90;99.90;;;;;;5114259;28;20390;-91
2022/08/19 07:57:21;;;;;;;0.20;0.20;;;19.90;99.90;;;;;;5095279;28;20395;-90
2022/08/19 07:59:46;;;;;;;0.20;0.20;;;20.00;99.90;;;;;;5095886;28;20463;-91
2022/08/19 08:02:12;;;;;;;0.20;0.20;;;20.00;99.90;;;;;;5113888;28;20048;-90
2022/08/19 08:10:07;;;;;;;0.20;0.20;;;20.20;99.90;;;;;;5115856;28;20051;-90
2022/08/19 08:12:40;;;;;;;0.20;0.20;;;20.30;99.90;;;;;;5117273;28;20430;-90
2022/08/19 08:15:11;;;;;;;0.10;0.10;;;20.40;99.90;;;;;;5117740;28;20070;-89
2022/08/19 08:17:37;;;;;;;0.27;0.27;;;20.50;99.90;;;;;;5099787;28;20043;-89
2022/08/19 08:20:08;;;;;;;0.20;0.20;;;20.60;99.90;;;;;;5117020;28;20312;-91
2022/08/19 08:25:24;;;;;;;0.20;0.20;;;20.50;99.90;;;;;;5115736;28;20047;-89
2022/08/19 08:27:50;;;;;;;0.20;0.20;;;20.70;99.90;;;;;;5100342;28;20505;-92
2022/08/19 08:30:24;;;;;;;0.20;0.20;;;20.80;99.90;;;;;;5103392;28;20039;-92
2022/08/19 08:32:50;;;;;;;0.20;0.20;;;21.00;99.90;;;;;;5120534;28;20069;-87
2022/08/19 08:35:20;;;;;;;0.20;0.20;;;21.00;99.90;;;;;;5113490;28;20043;-92
2022/08/19 08:37:49;;;;;;;0.20;0.20;;;21.00;99.90;;;;;;5102691;28;20039;-86
2022/08/19 08:40:28;;;;;;;0.20;0.20;;;21.00;99.90;;;;;;5129579;28;20048;-87
2022/08/19 08:43:08;;;;;;;0.20;0.20;;;21.10;99.90;;;;;;5117944;28;20117;-89
2022/08/19 08:45:41;;;;;;;0.20;0.20;;;21.20;99.90;;;;;;5098984;28;20530;-90
2022/08/19 08:48:46;;;;;;;0.20;0.20;;;21.30;99.90;;;;;;5116466;28;20042;-89
2022/08/19 08:51:17;;;;;;;0.20;0.20;;;21.30;99.90;;;;;;5096961;28;20083;-87
2022/08/19 08:53:46;;;;;;;0.20;0.20;;;21.40;99.90;;;;;;5097694;28;20040;-87
2022/08/19 08:56:13;;;;;;;0.15;0.15;;;21.50;99.90;;;;;;5097416;28;20047;-88
2022/08/19 08:58:45;;;;;;;0.17;0.17;;;21.50;99.90;;;;;;5098398;28;20130;-88
2022/08/19 09:01:11;;;;;;;0.20;0.20;;;21.60;99.90;;;;;;5097306;28;20090;-88
2022/08/19 09:03:42;;;;;;;0.20;0.20;;;21.60;99.90;;;;;;5116723;28;20495;-87
2022/08/19 09:06:36;;;;;;;0.20;0.20;;;21.70;99.90;;;;;;5116625;28;20171;-87
2022/08/19 09:09:20;;;;;;;0.20;0.20;;;21.70;99.90;;;;;;5097272;28;20051;-87
2022/08/19 09:11:54;;;;;;;0.20;0.20;;;21.80;99.90;;;;;;5097418;28;20134;-87
2022/08/19 09:14:23;;;;;;;0.20;0.20;;;21.80;99.90;;;;;;5097229;28;20047;-86
2022/08/19 09:16:50;;;;;;;0.20;0.20;;;21.90;99.90;;;;;;5116331;28;20040;-87
2022/08/19 09:19:17;;;;;;;0.20;0.20;;;22.00;99.90;;;;;;5099240;28;20039;-88
2022/08/19 09:21:42;;;;;;;0.20;0.20;;;22.00;99.90;;;;;;5115145;28;20047;-86
2022/08/19 09:24:08;;;;;;;0.20;0.20;;;22.00;99.90;;;;;;5097539;28;20088;-87
2022/08/19 09:26:34;;;;;;;0.20;0.20;;;22.10;99.90;;;;;;5116004;28;20032;-88
2022/08/19 09:29:04;;;;;;;0.20;0.20;;;22.10;99.90;;;;;;5097162;28;20039;-89
2022/08/19 09:31:30;;;;;;;0.20;0.20;;;22.20;99.90;;;;;;5116104;28;20056;-89
2022/08/19 09:33:56;;;;;;;0.20;0.20;;;22.30;99.90;;;;;;5116098;28;20487;-87
2022/08/19 09:36:24;;;;;;;0.22;0.22;;;22.30;99.90;;;;;;5115336;28;20166;-86
2022/08/19 09:38:51;;;;;;;0.25;0.25;;;22.30;99.90;;;;;;5116066;28;20486;-86
2022/08/19 09:41:20;;;;;;;0.20;0.20;;;22.40;99.90;;;;;;5115900;28;20043;-86
2022/08/19 09:43:48;;;;;;;0.20;0.20;;;22.50;99.90;;;;;;5115244;28;20486;-88
2022/08/19 09:46:17;;;;;;;0.20;0.20;;;22.50;99.90;;;;;;5115525;28;20031;-90
2022/08/19 09:48:44;;;;;;;0.20;0.20;;;22.60;99.90;;;;;;5097809;28;20113;-88
2022/08/19 09:51:15;;;;;;;0.10;0.10;;;22.70;99.90;;;;;;5097168;28;20051;-90
2022/08/19 09:53:42;;;;;;;0.20;0.20;;;22.80;99.90;;;;;;5115460;28;20035;-89
2022/08/19 09:56:09;;;;;;;0.20;0.20;;;22.80;99.90;;;;;;5097010;28;20139;-88
2022/08/19 09:58:36;;;;;;;0.20;0.20;;;22.80;99.90;;;;;;5115684;28;20036;-88
2022/08/19 10:01:04;;;;;;;0.20;0.20;;;22.90;99.90;;;;;;5115316;28;20367;-92
2022/08/19 10:03:35;;;;;;;0.20;0.20;;;23.00;99.90;;;;;;5115157;28;20050;-88
2022/08/19 10:06:03;;;;;;;0.20;0.20;;;23.10;99.90;;;;;;5115543;28;20032;-88
2022/08/19 10:08:33;;;;;;;0.20;0.20;;;23.10;99.90;;;;;;5115018;28;20087;-88
2022/08/19 10:10:59;;;;;;;0.20;0.20;;;23.20;99.90;;;;;;5113985;28;20108;-88
2022/08/19 10:13:28;;;;;;;0.20;0.20;;;23.20;99.90;;;;;;5117251;28;20047;-89
2022/08/19 10:15:56;;;;;;;0.20;0.20;;;23.30;99.90;;;;;;5097146;28;20048;-91
2022/08/19 10:18:23;;;;;;;0.20;0.20;;;23.30;99.90;;;;;;5114865;28;20036;-88
2022/08/19 10:20:52;;;;;;;0.20;0.20;;;23.40;99.90;;;;;;5110021;28;20043;-89
2022/08/19 10:23:20;;;;;;;0.20;0.20;;;23.40;99.90;;;;;;5097603;28;20069;-89
2022/08/19 10:25:46;;;;;;;0.17;0.17;;;23.50;99.90;;;;;;5095794;28;20066;-90
2022/08/19 10:28:12;;;;;;;0.20;0.20;;;23.50;99.90;;;;;;5096386;28;20479;-89
2022/08/19 10:30:39;;;;;;;0.20;0.20;;;23.50;99.90;;;;;;5096601;28;20046;-88
2022/08/19 10:33:05;;;;;;;0.20;0.20;;;23.50;99.90;;;;;;5114151;28;20059;-88
2022/08/19 10:35:31;;;;;;;0.20;0.20;;;23.60;99.90;;;;;;5096397;28;20055;-89
2022/08/19 10:38:01;;;;;;;0.20;0.20;;;23.60;99.90;;;;;;5097093;28;20048;-91
2022/08/19 10:40:27;;;;;;;0.20;0.20;;;23.70;99.90;;;;;;5114098;28;20502;-87
2022/08/19 10:42:55;;;;;;;0.20;0.20;;;23.80;99.90;;;;;;5114531;28;20055;-88
2022/08/19 10:45:25;;;;;;;0.20;0.20;;;23.90;99.90;;;;;;5096216;28;20040;-91
2022/08/19 10:47:54;;;;;;;0.20;0.20;;;23.90;99.90;;;;;;5114483;28;20092;-88
2022/08/19 10:53:05;;;;;;;0.20;0.20;;;24.10;99.90;;;;;;5095598;28;20040;-91
2022/08/19 10:58:22;;;;;;;0.20;0.20;;;24.20;99.90;;;;;;5114144;28;20071;-90
2022/08/19 11:00:56;;;;;;;0.20;0.20;;;24.30;99.90;;;;;;5095799;28;20050;-88
2022/08/19 11:03:22;;;;;;;0.20;0.20;;;24.40;99.90;;;;;;5114335;28;20078;-88
2022/08/19 11:05:59;;;;;;;0.20;0.20;;;24.50;99.90;;;;;;5096203;28;20584;-89
2022/08/19 11:08:26;;;;;;;0.20;0.20;;;24.60;99.90;;;;;;5113192;28;20509;-87
2022/08/19 11:11:00;;;;;;;0.20;0.20;;;24.70;99.90;;;;;;5114140;28;20044;-89
2022/08/19 11:13:28;;;;;;;0.20;0.20;;;24.80;99.90;;;;;;5114088;28;20039;-88
2022/08/19 11:16:09;;;;;;;0.20;0.20;;;24.90;99.90;;;;;;5115299;28;20394;-88
2022/08/19 11:18:35;;;;;;;;;;;25.00;99.90;;;;;;5098180;28;20047;-87
2022/08/19 11:21:10;;;;;;;0.20;0.20;;;25.00;99.90;;;;;;5113636;28;19990;-87
2022/08/19 11:23:35;;;;;;;0.20;0.20;;;25.10;99.90;;;;;;5097834;28;20364;-88
2022/08/19 11:26:01;;;;;;;0.20;0.20;;;25.20;99.90;;;;;;5095169;28;20038;-88
2022/08/19 11:28:27;;;;;;;0.20;0.20;;;25.30;99.90;;;;;;5113236;28;20039;-89
2022/08/19 11:30:52;;;;;;;0.20;0.20;;;25.40;99.90;;;;;;5113972;28;20036;-92
2022/08/19 11:33:18;;;;;;;0.20;0.20;;;25.50;99.90;;;;;;5113439;28;20044;-86
2022/08/19 11:35:44;;;;;;;0.20;0.20;;;25.50;99.90;;;;;;5097610;28;20070;-89
2022/08/19 11:38:11;;;;;;;0.20;0.20;;;25.70;99.90;;;;;;5114998;28;20492;-88
2022/08/19 11:40:37;;;;;;;0.20;0.20;;;25.70;99.90;;;;;;5102751;28;20047;-89
2022/08/19 11:43:05;;;;;;;0.20;0.20;;;25.80;99.90;;;;;;5112285;28;20061;-90
2022/08/19 11:45:31;;;;;;;0.20;0.20;;;25.90;99.90;;;;;;5096362;28;20457;-88
2022/08/19 11:47:57;;;;;;;0.20;0.20;;;26.00;99.90;;;;;;5121660;28;20043;-89
2022/08/19 11:50:23;;;;;;;0.25;0.25;;;26.20;99.90;;;;;;5112930;28;20475;-87
2022/08/19 11:52:49;;;;;;;0.20;0.20;;;26.20;99.90;;;;;;5096637;28;20039;-87
2022/08/19 11:55:15;;;;;;;0.20;0.20;;;26.30;99.90;;;;;;5095911;28;20035;-87
2022/08/19 11:57:42;;;;;;;0.20;0.20;;;26.30;99.90;;;;;;5114312;28;20047;-89
2022/08/19 12:00:09;;;;;;;0.20;0.20;;;26.30;99.90;;;;;;5114314;28;20128;-87
2022/08/19 12:02:35;;;;;;;0.20;0.20;;;26.20;99.90;;;;;;5096284;28;20055;-87
2022/08/19 12:05:03;;;;;;;0.20;0.20;;;26.10;99.90;;;;;;5105088;28;20423;-88
2022/08/19 12:07:31;;;;;;;0.20;0.20;;;26.00;99.90;;;;;;5114480;28;20207;-88
2022/08/19 12:09:56;;;;;;;0.20;0.20;;;26.00;99.90;;;;;;5093901;28;20058;-87
2022/08/19 12:12:23;;;;;;;0.20;0.20;;;25.80;99.90;;;;;;5096116;28;20051;-87
2022/08/19 12:14:56;;;;;;;0.20;0.20;;;25.80;99.90;;;;;;5114407;28;20043;-88
2022/08/19 12:17:23;;;;;;;0.20;0.20;;;25.80;99.90;;;;;;5114372;28;20043;-88
2022/08/19 12:19:49;;;;;;;0.20;0.20;;;25.70;99.90;;;;;;5113741;28;20047;-93
2022/08/19 12:22:14;;;;;;;0.20;0.20;;;25.70;99.90;;;;;;5113987;28;20109;-88
2022/08/19 12:24:40;;;;;;;0.20;0.20;;;25.60;99.90;;;;;;5094858;28;20126;-93
2022/08/19 12:27:06;;;;;;;0.20;0.20;;;25.60;99.90;;;;;;5112913;28;20085;-88
2022/08/19 12:29:32;;;;;;;0.20;0.20;;;25.50;99.90;;;;;;5095744;28;20078;-90
2022/08/19 12:32:00;;;;;;;0.20;0.20;;;25.50;99.90;;;;;;5094979;28;20491;-86
2022/08/19 12:34:30;;;;;;;0.20;0.20;;;25.50;99.90;;;;;;5095517;28;20070;-88
2022/08/19 12:36:58;;;;;;;0.20;0.20;;;25.50;99.90;;;;;;5098190;28;20032;-88
2022/08/19 12:39:24;;;;;;;0.20;0.20;;;25.50;99.90;;;;;;5113299;28;20083;-88
2022/08/19 12:41:49;;;;;;;0.20;0.20;;;25.50;99.90;;;;;;5112799;28;20050;-89
2022/08/19 12:44:16;;;;;;;0.20;0.20;;;25.60;99.90;;;;;;5094404;28;20043;-89
2022/08/19 12:46:42;;;;;;;0.10;0.10;;;25.60;99.90;;;;;;5112363;28;20141;-87
2022/08/19 12:49:07;;;;;;;0.20;0.20;;;25.60;99.90;;;;;;5097401;28;20075;-89
2022/08/19 12:51:33;;;;;;;0.20;0.20;;;25.60;99.90;;;;;;5095631;28;20391;-89
2022/08/19 12:53:59;;;;;;;0.20;0.20;;;25.70;99.90;;;;;;5095472;28;20085;-90
2022/08/19 12:56:25;;;;;;;0.20;0.20;;;25.70;99.90;;;;;;5115566;28;20043;-89
2022/08/19 12:58:50;;;;;;;0.20;0.20;;;25.80;99.90;;;;;;5116479;28;20039;-87
2022/08/19 13:01:17;;;;;;;0.20;0.20;;;25.80;99.90;;;;;;5097372;28;20044;-91
2022/08/19 13:03:45;;;;;;;0.15;0.15;;;25.80;99.90;;;;;;5116485;28;20126;-89
2022/08/19 13:06:12;;;;;;;0.20;0.20;;;25.90;99.90;;;;;;5098100;28;20054;-90
2022/08/19 13:08:38;;;;;;;0.20;0.20;;;25.80;99.90;;;;;;5116416;28;20093;-87
2022/08/19 13:11:24;;;;;;;0.20;0.20;;;25.80;99.90;;;;;;5116595;28;20067;-88
2022/08/19 13:13:51;;;;;;;0.20;0.20;;;25.70;99.90;;;;;;5114117;28;20111;-88
2022/08/19 13:16:17;;;;;;;0.20;0.20;;;25.70;99.90;;;;;;5099993;28;20106;-87